sensor_id;sensor_type;location;lat;lon;timestamp;temperature;humidity
32502;DHT22;18952;52.516;13.460;2022-07-05T00:01:17;20.60;72.30
32502;DHT22;18952;52.516;13.460;2022-07-05T00:03:46;20.50;72.50
32502;DHT22;18952;52.516;13.460;2022-07-05T00:06:14;20.50;72.40
32502;DHT22;18952;52.516;13.460;2022-07-05T00:08:45;20.50;72.50
32502;DHT22;18952;52.516;13.460;2022-07-05T00:11:13;20.50;72.80
32502;DHT22;18952;52.516;13.460;2022-07-05T00:13:40;20.40;73.20
32502;DHT22;18952;52.516;13.460;2022-07-05T00:16:07;20.30;73.40
32502;DHT22;18952;52.516;13.460;2022-07-05T00:18:34;20.30;73.20
32502;DHT22;18952;52.516;13.460;2022-07-05T00:21:01;20.30;73.40
32502;DHT22;18952;52.516;13.460;2022-07-05T00:23:28;20.20;73.20
32502;DHT22;18952;52.516;13.460;2022-07-05T00:25:56;20.30;73.70
32502;DHT22;18952;52.516;13.460;2022-07-05T00:28:22;20.30;72.90
32502;DHT22;18952;52.516;13.460;2022-07-05T00:30:50;20.30;72.00
32502;DHT22;18952;52.516;13.460;2022-07-05T00:33:18;20.30;71.20
32502;DHT22;18952;52.516;13.460;2022-07-05T00:35:46;20.20;71.80
32502;DHT22;18952;52.516;13.460;2022-07-05T00:38:13;20.20;71.50
32502;DHT22;18952;52.516;13.460;2022-07-05T00:40:42;20.20;71.60
32502;DHT22;18952;52.516;13.460;2022-07-05T00:43:10;20.20;70.90
32502;DHT22;18952;52.516;13.460;2022-07-05T00:45:37;20.20;70.60
32502;DHT22;18952;52.516;13.460;2022-07-05T00:48:05;20.10;70.60
32502;DHT22;18952;52.516;13.460;2022-07-05T00:50:33;20.10;70.80
32502;DHT22;18952;52.516;13.460;2022-07-05T00:53:00;20.10;70.20
32502;DHT22;18952;52.516;13.460;2022-07-05T00:55:27;20.10;70.40
32502;DHT22;18952;52.516;13.460;2022-07-05T00:57:54;20.10;70.50
32502;DHT22;18952;52.516;13.460;2022-07-05T01:00:21;20.00;70.80
32502;DHT22;18952;52.516;13.460;2022-07-05T01:02:48;20.00;70.80
32502;DHT22;18952;52.516;13.460;2022-07-05T01:05:15;19.90;71.60
32502;DHT22;18952;52.516;13.460;2022-07-05T01:07:42;19.80;71.10
32502;DHT22;18952;52.516;13.460;2022-07-05T01:10:10;19.90;71.50
32502;DHT22;18952;52.516;13.460;2022-07-05T01:12:41;19.90;71.90
32502;DHT22;18952;52.516;13.460;2022-07-05T01:15:08;19.90;72.30
32502;DHT22;18952;52.516;13.460;2022-07-05T01:17:36;19.80;72.50
32502;DHT22;18952;52.516;13.460;2022-07-05T01:20:06;19.90;72.50
32502;DHT22;18952;52.516;13.460;2022-07-05T01:22:54;19.80;73.20
32502;DHT22;18952;52.516;13.460;2022-07-05T01:25:23;19.70;73.70
32502;DHT22;18952;52.516;13.460;2022-07-05T01:27:51;19.50;75.50
32502;DHT22;18952;52.516;13.460;2022-07-05T01:30:18;19.30;76.00
32502;DHT22;18952;52.516;13.460;2022-07-05T01:32:46;19.30;76.10
32502;DHT22;18952;52.516;13.460;2022-07-05T01:35:13;19.20;76.30
32502;DHT22;18952;52.516;13.460;2022-07-05T01:37:41;19.20;76.20
32502;DHT22;18952;52.516;13.460;2022-07-05T01:40:09;19.20;76.30
32502;DHT22;18952;52.516;13.460;2022-07-05T01:42:35;19.20;76.60
32502;DHT22;18952;52.516;13.460;2022-07-05T01:45:03;19.20;76.40
32502;DHT22;18952;52.516;13.460;2022-07-05T01:47:35;19.20;76.30
32502;DHT22;18952;52.516;13.460;2022-07-05T01:50:06;19.20;76.60
32502;DHT22;18952;52.516;13.460;2022-07-05T01:52:36;19.20;76.70
32502;DHT22;18952;52.516;13.460;2022-07-05T01:55:06;19.20;77.00
32502;DHT22;18952;52.516;13.460;2022-07-05T01:57:34;19.20;76.90
32502;DHT22;18952;52.516;13.460;2022-07-05T02:00:01;19.10;76.60
32502;DHT22;18952;52.516;13.460;2022-07-05T02:02:28;19.00;77.50
32502;DHT22;18952;52.516;13.460;2022-07-05T02:04:55;18.80;78.40
32502;DHT22;18952;52.516;13.460;2022-07-05T02:07:22;18.60;79.30
32502;DHT22;18952;52.516;13.460;2022-07-05T02:09:49;18.60;79.70
32502;DHT22;18952;52.516;13.460;2022-07-05T02:12:16;18.40;80.60
32502;DHT22;18952;52.516;13.460;2022-07-05T02:14:43;18.30;81.30
32502;DHT22;18952;52.516;13.460;2022-07-05T02:17:11;18.20;81.90
32502;DHT22;18952;52.516;13.460;2022-07-05T02:19:38;18.00;83.30
32502;DHT22;18952;52.516;13.460;2022-07-05T02:22:06;17.90;84.50
32502;DHT22;18952;52.516;13.460;2022-07-05T02:24:33;17.70;85.90
32502;DHT22;18952;52.516;13.460;2022-07-05T02:27:01;17.70;86.10
32502;DHT22;18952;52.516;13.460;2022-07-05T02:29:28;17.60;87.80
32502;DHT22;18952;52.516;13.460;2022-07-05T02:31:55;17.60;87.70
32502;DHT22;18952;52.516;13.460;2022-07-05T02:34:23;17.60;88.20
32502;DHT22;18952;52.516;13.460;2022-07-05T02:36:51;17.60;89.80
32502;DHT22;18952;52.516;13.460;2022-07-05T02:39:19;17.40;90.50
32502;DHT22;18952;52.516;13.460;2022-07-05T02:41:46;17.30;90.90
32502;DHT22;18952;52.516;13.460;2022-07-05T02:44:14;17.20;92.00
32502;DHT22;18952;52.516;13.460;2022-07-05T02:46:44;17.10;92.50
32502;DHT22;18952;52.516;13.460;2022-07-05T02:49:11;17.10;92.90
32502;DHT22;18952;52.516;13.460;2022-07-05T02:51:38;17.10;93.30
32502;DHT22;18952;52.516;13.460;2022-07-05T02:54:08;16.90;94.60
32502;DHT22;18952;52.516;13.460;2022-07-05T02:56:35;16.90;94.60
32502;DHT22;18952;52.516;13.460;2022-07-05T02:59:03;16.90;95.30
32502;DHT22;18952;52.516;13.460;2022-07-05T03:01:30;16.80;96.50
32502;DHT22;18952;52.516;13.460;2022-07-05T03:03:57;16.70;96.80
32502;DHT22;18952;52.516;13.460;2022-07-05T03:06:24;16.60;97.50
32502;DHT22;18952;52.516;13.460;2022-07-05T03:08:51;16.50;98.10
32502;DHT22;18952;52.516;13.460;2022-07-05T03:11:18;16.60;97.70
32502;DHT22;18952;52.516;13.460;2022-07-05T03:13:45;16.60;98.40
32502;DHT22;18952;52.516;13.460;2022-07-05T03:16:13;16.60;98.50
32502;DHT22;18952;52.516;13.460;2022-07-05T03:18:41;16.70;98.60
32502;DHT22;18952;52.516;13.460;2022-07-05T03:21:09;16.70;98.70
32502;DHT22;18952;52.516;13.460;2022-07-05T03:23:38;16.80;98.60
32502;DHT22;18952;52.516;13.460;2022-07-05T03:26:04;16.80;99.20
32502;DHT22;18952;52.516;13.460;2022-07-05T03:28:32;16.90;98.80
32502;DHT22;18952;52.516;13.460;2022-07-05T03:30:59;16.90;99.30
32502;DHT22;18952;52.516;13.460;2022-07-05T03:33:26;16.70;99.90
32502;DHT22;18952;52.516;13.460;2022-07-05T03:35:55;16.70;99.90
32502;DHT22;18952;52.516;13.460;2022-07-05T03:38:22;16.80;99.90
32502;DHT22;18952;52.516;13.460;2022-07-05T03:40:49;16.70;99.90
32502;DHT22;18952;52.516;13.460;2022-07-05T03:43:16;16.70;99.90
32502;DHT22;18952;52.516;13.460;2022-07-05T03:45:43;16.60;99.90
32502;DHT22;18952;52.516;13.460;2022-07-05T03:48:10;16.60;99.90
32502;DHT22;18952;52.516;13.460;2022-07-05T03:50:56;16.60;99.90
32502;DHT22;18952;52.516;13.460;2022-07-05T03:53:23;16.70;99.90
32502;DHT22;18952;52.516;13.460;2022-07-05T03:55:50;16.70;99.90
32502;DHT22;18952;52.516;13.460;2022-07-05T03:58:17;16.70;99.90
32502;DHT22;18952;52.516;13.460;2022-07-05T04:00:44;16.90;99.90
32502;DHT22;18952;52.516;13.460;2022-07-05T04:03:11;16.80;99.90
32502;DHT22;18952;52.516;13.460;2022-07-05T04:05:39;16.80;99.90
32502;DHT22;18952;52.516;13.460;2022-07-05T04:08:06;16.80;99.90
32502;DHT22;18952;52.516;13.460;2022-07-05T04:10:34;16.90;99.90
32502;DHT22;18952;52.516;13.460;2022-07-05T04:13:01;16.90;99.90
32502;DHT22;18952;52.516;13.460;2022-07-05T04:15:29;17.00;99.90
32502;DHT22;18952;52.516;13.460;2022-07-05T04:17:58;17.10;99.90
32502;DHT22;18952;52.516;13.460;2022-07-05T04:20:29;17.10;99.90
32502;DHT22;18952;52.516;13.460;2022-07-05T04:22:58;17.10;99.90
32502;DHT22;18952;52.516;13.460;2022-07-05T04:25:25;17.00;99.90
32502;DHT22;18952;52.516;13.460;2022-07-05T04:27:54;16.90;99.90
32502;DHT22;18952;52.516;13.460;2022-07-05T04:30:25;16.90;99.90
32502;DHT22;18952;52.516;13.460;2022-07-05T04:32:52;17.00;99.90
32502;DHT22;18952;52.516;13.460;2022-07-05T04:35:19;16.90;99.90
32502;DHT22;18952;52.516;13.460;2022-07-05T04:37:46;16.90;99.90
32502;DHT22;18952;52.516;13.460;2022-07-05T04:40:14;16.90;99.90
32502;DHT22;18952;52.516;13.460;2022-07-05T04:42:43;16.80;99.90
32502;DHT22;18952;52.516;13.460;2022-07-05T04:45:10;16.80;99.90
32502;DHT22;18952;52.516;13.460;2022-07-05T04:47:38;16.90;99.90
32502;DHT22;18952;52.516;13.460;2022-07-05T04:50:06;16.90;99.90
32502;DHT22;18952;52.516;13.460;2022-07-05T04:52:35;16.90;99.90
32502;DHT22;18952;52.516;13.460;2022-07-05T04:55:04;16.80;99.90
32502;DHT22;18952;52.516;13.460;2022-07-05T04:57:38;16.90;99.90
32502;DHT22;18952;52.516;13.460;2022-07-05T05:00:06;17.00;99.90
32502;DHT22;18952;52.516;13.460;2022-07-05T05:02:34;17.10;99.90
32502;DHT22;18952;52.516;13.460;2022-07-05T05:05:01;17.10;99.90
32502;DHT22;18952;52.516;13.460;2022-07-05T05:07:28;17.20;99.60
32502;DHT22;18952;52.516;13.460;2022-07-05T05:10:02;17.30;99.50
32502;DHT22;18952;52.516;13.460;2022-07-05T05:12:29;17.40;99.10
32502;DHT22;18952;52.516;13.460;2022-07-05T05:14:56;17.40;99.30
32502;DHT22;18952;52.516;13.460;2022-07-05T05:17:23;17.50;99.00
32502;DHT22;18952;52.516;13.460;2022-07-05T05:19:50;17.50;99.00
32502;DHT22;18952;52.516;13.460;2022-07-05T05:22:16;17.60;98.90
32502;DHT22;18952;52.516;13.460;2022-07-05T05:24:43;17.70;98.90
32502;DHT22;18952;52.516;13.460;2022-07-05T05:27:10;17.80;98.70
32502;DHT22;18952;52.516;13.460;2022-07-05T05:29:37;17.90;98.60
32502;DHT22;18952;52.516;13.460;2022-07-05T05:32:06;18.00;98.50
32502;DHT22;18952;52.516;13.460;2022-07-05T05:34:34;18.10;98.30
32502;DHT22;18952;52.516;13.460;2022-07-05T05:37:02;18.10;98.30
32502;DHT22;18952;52.516;13.460;2022-07-05T05:39:29;18.00;98.20
32502;DHT22;18952;52.516;13.460;2022-07-05T05:41:56;17.80;98.60
32502;DHT22;18952;52.516;13.460;2022-07-05T05:44:23;17.90;98.40
32502;DHT22;18952;52.516;13.460;2022-07-05T05:46:49;18.00;98.30
32502;DHT22;18952;52.516;13.460;2022-07-05T05:49:16;18.10;98.00
32502;DHT22;18952;52.516;13.460;2022-07-05T05:51:43;18.20;97.70
32502;DHT22;18952;52.516;13.460;2022-07-05T05:54:10;18.10;97.50
32502;DHT22;18952;52.516;13.460;2022-07-05T05:56:37;18.00;97.40
32502;DHT22;18952;52.516;13.460;2022-07-05T05:59:04;18.00;97.20
32502;DHT22;18952;52.516;13.460;2022-07-05T06:01:31;18.10;96.30
32502;DHT22;18952;52.516;13.460;2022-07-05T06:03:58;18.10;96.30
32502;DHT22;18952;52.516;13.460;2022-07-05T06:06:25;18.20;96.10
32502;DHT22;18952;52.516;13.460;2022-07-05T06:08:52;18.30;95.90
32502;DHT22;18952;52.516;13.460;2022-07-05T06:11:19;18.40;95.40
32502;DHT22;18952;52.516;13.460;2022-07-05T06:13:46;18.40;94.90
32502;DHT22;18952;52.516;13.460;2022-07-05T06:16:13;18.40;94.80
32502;DHT22;18952;52.516;13.460;2022-07-05T06:18:41;18.50;94.90
32502;DHT22;18952;52.516;13.460;2022-07-05T06:21:09;18.60;94.60
32502;DHT22;18952;52.516;13.460;2022-07-05T06:23:37;18.60;94.50
32502;DHT22;18952;52.516;13.460;2022-07-05T06:26:06;18.50;94.60
32502;DHT22;18952;52.516;13.460;2022-07-05T06:28:33;18.60;94.60
32502;DHT22;18952;52.516;13.460;2022-07-05T06:31:00;18.70;94.60
32502;DHT22;18952;52.516;13.460;2022-07-05T06:33:27;18.70;94.70
32502;DHT22;18952;52.516;13.460;2022-07-05T06:35:53;18.70;94.70
32502;DHT22;18952;52.516;13.460;2022-07-05T06:38:20;18.80;94.60
32502;DHT22;18952;52.516;13.460;2022-07-05T06:40:47;18.80;94.60
32502;DHT22;18952;52.516;13.460;2022-07-05T06:43:16;18.80;94.60
32502;DHT22;18952;52.516;13.460;2022-07-05T06:45:43;18.90;94.40
32502;DHT22;18952;52.516;13.460;2022-07-05T06:48:11;18.90;94.30
32502;DHT22;18952;52.516;13.460;2022-07-05T06:50:41;18.90;94.60
32502;DHT22;18952;52.516;13.460;2022-07-05T06:53:08;19.00;94.40
32502;DHT22;18952;52.516;13.460;2022-07-05T06:55:35;19.10;94.30
32502;DHT22;18952;52.516;13.460;2022-07-05T06:58:07;19.20;94.30
32502;DHT22;18952;52.516;13.460;2022-07-05T07:00:40;19.20;94.20
32502;DHT22;18952;52.516;13.460;2022-07-05T07:03:31;19.30;94.00
32502;DHT22;18952;52.516;13.460;2022-07-05T07:06:20;19.30;93.70
32502;DHT22;18952;52.516;13.460;2022-07-05T07:08:48;19.30;93.70
32502;DHT22;18952;52.516;13.460;2022-07-05T07:11:15;19.40;93.70
32502;DHT22;18952;52.516;13.460;2022-07-05T07:13:41;19.40;93.80
32502;DHT22;18952;52.516;13.460;2022-07-05T07:16:09;19.50;93.50
32502;DHT22;18952;52.516;13.460;2022-07-05T07:18:37;19.60;93.60
32502;DHT22;18952;52.516;13.460;2022-07-05T07:21:29;19.60;93.50
32502;DHT22;18952;52.516;13.460;2022-07-05T07:23:55;19.70;93.20
32502;DHT22;18952;52.516;13.460;2022-07-05T07:26:23;19.60;93.10
32502;DHT22;18952;52.516;13.460;2022-07-05T07:28:52;19.60;93.30
32502;DHT22;18952;52.516;13.460;2022-07-05T07:31:26;19.70;92.90
32502;DHT22;18952;52.516;13.460;2022-07-05T07:33:53;19.80;92.90
32502;DHT22;18952;52.516;13.460;2022-07-05T07:36:20;19.80;92.00
32502;DHT22;18952;52.516;13.460;2022-07-05T07:38:46;19.80;91.70
32502;DHT22;18952;52.516;13.460;2022-07-05T07:41:12;19.80;91.80
32502;DHT22;18952;52.516;13.460;2022-07-05T07:43:40;19.90;91.60
32502;DHT22;18952;52.516;13.460;2022-07-05T07:46:06;20.00;91.30
32502;DHT22;18952;52.516;13.460;2022-07-05T07:48:34;19.90;91.10
32502;DHT22;18952;52.516;13.460;2022-07-05T07:51:02;20.00;91.20
32502;DHT22;18952;52.516;13.460;2022-07-05T07:53:30;20.00;90.80
32502;DHT22;18952;52.516;13.460;2022-07-05T07:56:00;20.00;90.60
32502;DHT22;18952;52.516;13.460;2022-07-05T07:58:28;20.00;90.10
32502;DHT22;18952;52.516;13.460;2022-07-05T08:00:57;20.00;89.30
32502;DHT22;18952;52.516;13.460;2022-07-05T08:03:23;20.10;89.90
32502;DHT22;18952;52.516;13.460;2022-07-05T08:05:50;20.10;88.30
32502;DHT22;18952;52.516;13.460;2022-07-05T08:08:17;20.20;88.20
32502;DHT22;18952;52.516;13.460;2022-07-05T08:10:44;20.10;88.50
32502;DHT22;18952;52.516;13.460;2022-07-05T08:13:10;20.30;88.30
32502;DHT22;18952;52.516;13.460;2022-07-05T08:15:37;20.30;87.10
32502;DHT22;18952;52.516;13.460;2022-07-05T08:18:04;20.40;86.90
32502;DHT22;18952;52.516;13.460;2022-07-05T08:20:31;20.40;85.90
32502;DHT22;18952;52.516;13.460;2022-07-05T08:22:57;20.50;85.60
32502;DHT22;18952;52.516;13.460;2022-07-05T08:25:24;20.50;83.40
32502;DHT22;18952;52.516;13.460;2022-07-05T08:27:53;20.40;84.10
32502;DHT22;18952;52.516;13.460;2022-07-05T08:30:25;20.40;84.40
32502;DHT22;18952;52.516;13.460;2022-07-05T08:32:52;20.50;84.70
32502;DHT22;18952;52.516;13.460;2022-07-05T08:35:24;20.50;85.10
32502;DHT22;18952;52.516;13.460;2022-07-05T08:38:00;20.50;85.60
32502;DHT22;18952;52.516;13.460;2022-07-05T08:40:29;20.60;85.30
32502;DHT22;18952;52.516;13.460;2022-07-05T08:43:11;20.60;83.80
32502;DHT22;18952;52.516;13.460;2022-07-05T08:45:42;20.50;83.20
32502;DHT22;18952;52.516;13.460;2022-07-05T08:48:10;20.50;83.00
32502;DHT22;18952;52.516;13.460;2022-07-05T08:50:41;20.50;83.40
32502;DHT22;18952;52.516;13.460;2022-07-05T08:53:10;20.40;83.50
32502;DHT22;18952;52.516;13.460;2022-07-05T08:55:38;20.40;84.20
32502;DHT22;18952;52.516;13.460;2022-07-05T08:58:08;20.50;85.10
32502;DHT22;18952;52.516;13.460;2022-07-05T09:00:42;20.50;84.50
32502;DHT22;18952;52.516;13.460;2022-07-05T09:03:09;20.60;85.10
32502;DHT22;18952;52.516;13.460;2022-07-05T09:05:42;20.60;84.80
32502;DHT22;18952;52.516;13.460;2022-07-05T09:08:10;20.60;84.50
32502;DHT22;18952;52.516;13.460;2022-07-05T09:10:40;20.60;85.30
32502;DHT22;18952;52.516;13.460;2022-07-05T09:13:14;20.60;85.00
32502;DHT22;18952;52.516;13.460;2022-07-05T09:15:41;20.70;84.90
32502;DHT22;18952;52.516;13.460;2022-07-05T09:18:09;20.80;84.90
32502;DHT22;18952;52.516;13.460;2022-07-05T09:20:36;20.80;84.70
32502;DHT22;18952;52.516;13.460;2022-07-05T09:23:04;20.90;84.80
32502;DHT22;18952;52.516;13.460;2022-07-05T09:25:32;20.90;83.40
32502;DHT22;18952;52.516;13.460;2022-07-05T09:28:05;20.90;84.10
32502;DHT22;18952;52.516;13.460;2022-07-05T09:30:40;20.90;83.60
32502;DHT22;18952;52.516;13.460;2022-07-05T09:33:11;20.90;83.70
32502;DHT22;18952;52.516;13.460;2022-07-05T09:35:40;20.90;83.00
32502;DHT22;18952;52.516;13.460;2022-07-05T09:38:18;20.80;82.60
32502;DHT22;18952;52.516;13.460;2022-07-05T09:40:52;20.80;83.20
32502;DHT22;18952;52.516;13.460;2022-07-05T09:43:20;20.90;82.60
32502;DHT22;18952;52.516;13.460;2022-07-05T09:45:53;20.90;82.30
32502;DHT22;18952;52.516;13.460;2022-07-05T09:48:20;20.90;82.10
32502;DHT22;18952;52.516;13.460;2022-07-05T09:51:14;21.00;81.90
32502;DHT22;18952;52.516;13.460;2022-07-05T09:54:01;21.00;81.50
32502;DHT22;18952;52.516;13.460;2022-07-05T09:56:47;21.20;81.70
32502;DHT22;18952;52.516;13.460;2022-07-05T09:59:16;21.20;81.50
32502;DHT22;18952;52.516;13.460;2022-07-05T10:01:43;21.30;80.90
32502;DHT22;18952;52.516;13.460;2022-07-05T10:04:10;21.40;80.60
32502;DHT22;18952;52.516;13.460;2022-07-05T10:06:42;21.40;81.00
32502;DHT22;18952;52.516;13.460;2022-07-05T10:09:09;21.50;80.60
32502;DHT22;18952;52.516;13.460;2022-07-05T10:11:44;21.50;80.60
32502;DHT22;18952;52.516;13.460;2022-07-05T10:14:21;21.50;80.70
32502;DHT22;18952;52.516;13.460;2022-07-05T10:17:00;21.50;79.30
32502;DHT22;18952;52.516;13.460;2022-07-05T10:19:33;21.50;80.20
32502;DHT22;18952;52.516;13.460;2022-07-05T10:22:02;21.50;80.20
32502;DHT22;18952;52.516;13.460;2022-07-05T10:24:46;21.50;79.20
32502;DHT22;18952;52.516;13.460;2022-07-05T10:27:14;21.60;79.40
32502;DHT22;18952;52.516;13.460;2022-07-05T10:29:43;21.70;78.70
32502;DHT22;18952;52.516;13.460;2022-07-05T10:32:11;21.70;79.20
32502;DHT22;18952;52.516;13.460;2022-07-05T10:34:41;21.80;79.40
32502;DHT22;18952;52.516;13.460;2022-07-05T10:37:33;21.90;77.30
32502;DHT22;18952;52.516;13.460;2022-07-05T10:40:04;21.90;76.80
32502;DHT22;18952;52.516;13.460;2022-07-05T10:42:39;22.00;76.90
32502;DHT22;18952;52.516;13.460;2022-07-05T10:50:52;22.10;75.50
32502;DHT22;18952;52.516;13.460;2022-07-05T10:58:31;22.10;75.40
32502;DHT22;18952;52.516;13.460;2022-07-05T11:04:06;22.30;74.60
32502;DHT22;18952;52.516;13.460;2022-07-05T11:06:46;22.40;74.50
32502;DHT22;18952;52.516;13.460;2022-07-05T11:09:15;22.40;74.80
32502;DHT22;18952;52.516;13.460;2022-07-05T11:11:47;22.40;74.20
32502;DHT22;18952;52.516;13.460;2022-07-05T11:14:47;22.40;74.40
32502;DHT22;18952;52.516;13.460;2022-07-05T11:17:19;22.50;74.20
32502;DHT22;18952;52.516;13.460;2022-07-05T11:20:16;22.60;74.40
32502;DHT22;18952;52.516;13.460;2022-07-05T11:23:03;22.60;73.90
32502;DHT22;18952;52.516;13.460;2022-07-05T11:25:31;22.70;73.90
32502;DHT22;18952;52.516;13.460;2022-07-05T11:30:50;22.80;72.40
32502;DHT22;18952;52.516;13.460;2022-07-05T11:33:42;22.80;73.00
32502;DHT22;18952;52.516;13.460;2022-07-05T11:36:22;22.80;72.60
32502;DHT22;18952;52.516;13.460;2022-07-05T11:39:13;23.00;71.90
32502;DHT22;18952;52.516;13.460;2022-07-05T11:41:43;23.00;71.40
32502;DHT22;18952;52.516;13.460;2022-07-05T11:44:10;22.90;71.70
32502;DHT22;18952;52.516;13.460;2022-07-05T11:46:37;23.10;71.40
32502;DHT22;18952;52.516;13.460;2022-07-05T11:49:24;23.00;70.20
32502;DHT22;18952;52.516;13.460;2022-07-05T11:52:01;22.90;70.40
32502;DHT22;18952;52.516;13.460;2022-07-05T11:54:33;23.00;70.20
32502;DHT22;18952;52.516;13.460;2022-07-05T11:57:04;23.10;70.40
32502;DHT22;18952;52.516;13.460;2022-07-05T11:59:41;23.40;68.20
32502;DHT22;18952;52.516;13.460;2022-07-05T12:02:10;23.60;68.60
32502;DHT22;18952;52.516;13.460;2022-07-05T12:04:39;23.60;66.90
32502;DHT22;18952;52.516;13.460;2022-07-05T12:07:06;23.70;67.40
32502;DHT22;18952;52.516;13.460;2022-07-05T12:09:34;24.00;67.60
32502;DHT22;18952;52.516;13.460;2022-07-05T12:12:00;24.20;66.40
32502;DHT22;18952;52.516;13.460;2022-07-05T12:14:27;24.50;65.20
32502;DHT22;18952;52.516;13.460;2022-07-05T12:17:13;24.70;65.70
32502;DHT22;18952;52.516;13.460;2022-07-05T12:19:54;25.10;64.40
32502;DHT22;18952;52.516;13.460;2022-07-05T12:22:42;25.00;61.80
32502;DHT22;18952;52.516;13.460;2022-07-05T12:25:13;24.60;62.70
32502;DHT22;18952;52.516;13.460;2022-07-05T12:27:43;24.50;62.80
32502;DHT22;18952;52.516;13.460;2022-07-05T12:30:11;24.50;63.00
32502;DHT22;18952;52.516;13.460;2022-07-05T12:33:08;24.40;62.80
32502;DHT22;18952;52.516;13.460;2022-07-05T12:38:12;24.30;62.80
32502;DHT22;18952;52.516;13.460;2022-07-05T12:40:42;24.60;62.90
32502;DHT22;18952;52.516;13.460;2022-07-05T12:43:17;24.80;62.80
32502;DHT22;18952;52.516;13.460;2022-07-05T12:48:37;24.70;62.10
32502;DHT22;18952;52.516;13.460;2022-07-05T12:51:06;24.70;61.70
32502;DHT22;18952;52.516;13.460;2022-07-05T12:53:48;24.60;62.00
32502;DHT22;18952;52.516;13.460;2022-07-05T12:56:15;24.60;62.00
32502;DHT22;18952;52.516;13.460;2022-07-05T12:58:49;24.60;61.90
32502;DHT22;18952;52.516;13.460;2022-07-05T13:04:00;24.50;61.70
32502;DHT22;18952;52.516;13.460;2022-07-05T13:09:11;24.70;61.00
32502;DHT22;18952;52.516;13.460;2022-07-05T13:11:39;24.70;60.50
32502;DHT22;18952;52.516;13.460;2022-07-05T13:14:06;25.00;60.70
32502;DHT22;18952;52.516;13.460;2022-07-05T13:16:33;25.30;59.90
32502;DHT22;18952;52.516;13.460;2022-07-05T13:19:11;25.50;60.00
32502;DHT22;18952;52.516;13.460;2022-07-05T13:21:40;25.60;58.70
32502;DHT22;18952;52.516;13.460;2022-07-05T13:24:07;25.90;58.80
32502;DHT22;18952;52.516;13.460;2022-07-05T13:26:34;26.10;58.10
32502;DHT22;18952;52.516;13.460;2022-07-05T13:29:00;26.30;57.70
32502;DHT22;18952;52.516;13.460;2022-07-05T13:31:27;26.40;56.80
32502;DHT22;18952;52.516;13.460;2022-07-05T13:33:54;26.20;56.00
32502;DHT22;18952;52.516;13.460;2022-07-05T13:36:21;26.00;55.40
32502;DHT22;18952;52.516;13.460;2022-07-05T13:38:48;26.20;55.40
32502;DHT22;18952;52.516;13.460;2022-07-05T13:41:15;26.40;55.10
32502;DHT22;18952;52.516;13.460;2022-07-05T13:43:43;26.50;55.10
32502;DHT22;18952;52.516;13.460;2022-07-05T13:46:11;26.50;55.60
32502;DHT22;18952;52.516;13.460;2022-07-05T13:48:39;26.40;55.50
32502;DHT22;18952;52.516;13.460;2022-07-05T13:51:07;26.40;55.80
32502;DHT22;18952;52.516;13.460;2022-07-05T13:53:35;26.90;56.10
32502;DHT22;18952;52.516;13.460;2022-07-05T13:56:07;27.20;55.00
32502;DHT22;18952;52.516;13.460;2022-07-05T13:58:34;27.50;54.30
32502;DHT22;18952;52.516;13.460;2022-07-05T14:01:01;27.70;53.60
32502;DHT22;18952;52.516;13.460;2022-07-05T14:03:29;27.90;53.80
32502;DHT22;18952;52.516;13.460;2022-07-05T14:05:56;28.10;52.20
32502;DHT22;18952;52.516;13.460;2022-07-05T14:08:24;28.00;52.00
32502;DHT22;18952;52.516;13.460;2022-07-05T14:10:52;27.70;52.40
32502;DHT22;18952;52.516;13.460;2022-07-05T14:13:20;27.80;52.70
32502;DHT22;18952;52.516;13.460;2022-07-05T14:15:48;27.70;52.40
32502;DHT22;18952;52.516;13.460;2022-07-05T14:18:16;27.70;51.90
32502;DHT22;18952;52.516;13.460;2022-07-05T14:20:44;27.70;51.80
32502;DHT22;18952;52.516;13.460;2022-07-05T14:23:12;27.90;51.90
32502;DHT22;18952;52.516;13.460;2022-07-05T14:25:41;27.90;52.10
32502;DHT22;18952;52.516;13.460;2022-07-05T14:28:09;27.80;52.10
32502;DHT22;18952;52.516;13.460;2022-07-05T14:30:38;27.70;51.90
32502;DHT22;18952;52.516;13.460;2022-07-05T14:33:07;27.40;51.50
32502;DHT22;18952;52.516;13.460;2022-07-05T14:35:34;27.20;52.00
32502;DHT22;18952;52.516;13.460;2022-07-05T14:38:10;27.00;52.60
32502;DHT22;18952;52.516;13.460;2022-07-05T14:40:39;26.90;52.70
32502;DHT22;18952;52.516;13.460;2022-07-05T14:43:06;26.90;52.60
32502;DHT22;18952;52.516;13.460;2022-07-05T14:45:33;27.10;52.50
32502;DHT22;18952;52.516;13.460;2022-07-05T14:48:01;27.20;52.20
32502;DHT22;18952;52.516;13.460;2022-07-05T14:50:28;27.10;52.00
32502;DHT22;18952;52.516;13.460;2022-07-05T14:52:55;26.70;52.50
32502;DHT22;18952;52.516;13.460;2022-07-05T14:55:21;26.60;52.90
32502;DHT22;18952;52.516;13.460;2022-07-05T14:57:49;26.60;52.80
32502;DHT22;18952;52.516;13.460;2022-07-05T15:00:17;26.90;52.60
32502;DHT22;18952;52.516;13.460;2022-07-05T15:02:43;27.20;52.60
32502;DHT22;18952;52.516;13.460;2022-07-05T15:05:10;27.60;52.10
32502;DHT22;18952;52.516;13.460;2022-07-05T15:07:38;27.70;51.70
32502;DHT22;18952;52.516;13.460;2022-07-05T15:10:08;27.60;51.60
32502;DHT22;18952;52.516;13.460;2022-07-05T15:12:35;27.60;51.00
32502;DHT22;18952;52.516;13.460;2022-07-05T15:15:04;27.60;51.30
32502;DHT22;18952;52.516;13.460;2022-07-05T15:17:30;27.40;51.50
32502;DHT22;18952;52.516;13.460;2022-07-05T15:19:59;27.20;51.70
32502;DHT22;18952;52.516;13.460;2022-07-05T15:22:33;26.90;51.60
32502;DHT22;18952;52.516;13.460;2022-07-05T15:25:04;26.60;52.00
32502;DHT22;18952;52.516;13.460;2022-07-05T15:27:35;26.50;52.40
32502;DHT22;18952;52.516;13.460;2022-07-05T15:30:03;26.40;52.30
32502;DHT22;18952;52.516;13.460;2022-07-05T15:32:29;26.40;52.60
32502;DHT22;18952;52.516;13.460;2022-07-05T15:34:58;26.50;52.60
32502;DHT22;18952;52.516;13.460;2022-07-05T15:37:25;26.60;52.40
32502;DHT22;18952;52.516;13.460;2022-07-05T15:39:52;26.60;52.30
32502;DHT22;18952;52.516;13.460;2022-07-05T15:42:18;26.60;52.60
32502;DHT22;18952;52.516;13.460;2022-07-05T15:44:45;26.60;51.90
32502;DHT22;18952;52.516;13.460;2022-07-05T15:47:25;26.60;52.00
32502;DHT22;18952;52.516;13.460;2022-07-05T15:49:52;26.50;52.00
32502;DHT22;18952;52.516;13.460;2022-07-05T15:52:19;26.30;52.30
32502;DHT22;18952;52.516;13.460;2022-07-05T15:54:46;26.20;52.20
32502;DHT22;18952;52.516;13.460;2022-07-05T15:57:15;26.00;52.30